sensor_id;sensor_type;location;lat;lon;timestamp;pressure;altitude;pressure_sealevel;temperature;humidity
26807;BME280;14380;49.910;6.792;2023-04-19T00:00:05;99506.84;;;11.01;100.00
26807;BME280;14380;49.910;6.792;2023-04-19T00:02:33;99513.38;;;10.92;100.00
26807;BME280;14380;49.910;6.792;2023-04-19T00:05:01;99507.72;;;10.81;100.00
26807;BME280;14380;49.910;6.792;2023-04-19T00:07:28;99508.88;;;10.94;100.00
26807;BME280;14380;49.910;6.792;2023-04-19T00:09:54;99507.53;;;11.05;100.00
26807;BME280;14380;49.910;6.792;2023-04-19T00:12:21;99503.28;;;10.81;100.00
26807;BME280;14380;49.910;6.792;2023-04-19T00:14:47;99503.06;;;10.86;100.00
26807;BME280;14380;49.910;6.792;2023-04-19T00:17:14;99506.28;;;10.74;100.00
26807;BME280;14380;49.910;6.792;2023-04-19T00:19:41;99500.38;;;10.88;100.00
26807;BME280;14380;49.910;6.792;2023-04-19T00:22:09;99506.66;;;11.04;100.00
26807;BME280;14380;49.910;6.792;2023-04-19T00:24:36;99510.16;;;10.85;100.00
26807;BME280;14380;49.910;6.792;2023-04-19T00:27:02;99509.72;;;10.76;100.00
26807;BME280;14380;49.910;6.792;2023-04-19T00:29:29;99498.47;;;10.70;100.00
26807;BME280;14380;49.910;6.792;2023-04-19T00:31:56;99509.56;;;10.79;100.00
26807;BME280;14380;49.910;6.792;2023-04-19T00:34:22;99512.28;;;10.77;100.00
26807;BME280;14380;49.910;6.792;2023-04-19T00:36:49;99513.06;;;10.79;100.00
26807;BME280;14380;49.910;6.792;2023-04-19T00:39:17;99512.53;;;10.92;100.00
26807;BME280;14380;49.910;6.792;2023-04-19T00:41:43;99511.88;;;10.86;100.00
26807;BME280;14380;49.910;6.792;2023-04-19T00:44:10;99507.16;;;10.93;100.00
26807;BME280;14380;49.910;6.792;2023-04-19T00:46:37;99504.34;;;10.77;100.00
26807;BME280;14380;49.910;6.792;2023-04-19T00:49:04;99513.66;;;10.65;100.00
26807;BME280;14380;49.910;6.792;2023-04-19T00:51:31;99506.13;;;10.77;100.00
26807;BME280;14380;49.910;6.792;2023-04-19T00:53:58;99511.59;;;10.72;100.00
26807;BME280;14380;49.910;6.792;2023-04-19T00:56:26;99503.91;;;10.67;100.00
26807;BME280;14380;49.910;6.792;2023-04-19T00:58:53;99507.31;;;10.49;100.00
26807;BME280;14380;49.910;6.792;2023-04-19T01:01:20;99508.44;;;10.64;100.00
26807;BME280;14380;49.910;6.792;2023-04-19T01:03:47;99501.25;;;10.67;100.00
26807;BME280;14380;49.910;6.792;2023-04-19T01:06:14;99499.13;;;10.55;100.00
26807;BME280;14380;49.910;6.792;2023-04-19T01:08:41;99490.81;;;10.64;100.00
26807;BME280;14380;49.910;6.792;2023-04-19T01:11:07;99487.97;;;10.69;100.00
26807;BME280;14380;49.910;6.792;2023-04-19T01:13:35;99494.69;;;10.76;100.00
26807;BME280;14380;49.910;6.792;2023-04-19T01:16:03;99492.00;;;10.78;100.00
26807;BME280;14380;49.910;6.792;2023-04-19T01:18:29;99490.34;;;10.75;100.00
26807;BME280;14380;49.910;6.792;2023-04-19T01:21:01;99498.88;;;10.61;100.00
26807;BME280;14380;49.910;6.792;2023-04-19T01:23:30;99490.34;;;10.75;100.00
26807;BME280;14380;49.910;6.792;2023-04-19T01:25:56;99482.13;;;10.62;100.00
26807;BME280;14380;49.910;6.792;2023-04-19T01:28:23;99481.31;;;10.60;100.00
26807;BME280;14380;49.910;6.792;2023-04-19T01:30:49;99481.44;;;10.78;100.00
26807;BME280;14380;49.910;6.792;2023-04-19T01:33:18;99478.59;;;10.62;100.00
26807;BME280;14380;49.910;6.792;2023-04-19T01:35:45;99478.34;;;10.47;100.00
26807;BME280;14380;49.910;6.792;2023-04-19T01:38:12;99481.41;;;10.59;100.00
26807;BME280;14380;49.910;6.792;2023-04-19T01:40:40;99478.00;;;10.55;100.00
26807;BME280;14380;49.910;6.792;2023-04-19T01:43:06;99470.34;;;10.69;100.00
26807;BME280;14380;49.910;6.792;2023-04-19T01:45:33;99471.28;;;10.68;100.00
26807;BME280;14380;49.910;6.792;2023-04-19T01:48:00;99465.41;;;10.62;100.00
26807;BME280;14380;49.910;6.792;2023-04-19T01:50:27;99463.75;;;10.59;100.00
26807;BME280;14380;49.910;6.792;2023-04-19T01:52:54;99469.16;;;10.56;100.00
26807;BME280;14380;49.910;6.792;2023-04-19T01:55:20;99460.31;;;10.57;100.00
26807;BME280;14380;49.910;6.792;2023-04-19T01:57:48;99463.63;;;10.62;100.00
26807;BME280;14380;49.910;6.792;2023-04-19T02:00:17;99462.47;;;10.68;100.00
26807;BME280;14380;49.910;6.792;2023-04-19T02:02:44;99454.09;;;10.79;100.00
26807;BME280;14380;49.910;6.792;2023-04-19T02:05:10;99449.84;;;10.55;100.00
26807;BME280;14380;49.910;6.792;2023-04-19T02:07:37;99456.75;;;10.58;100.00
26807;BME280;14380;49.910;6.792;2023-04-19T02:10:04;99448.97;;;10.55;100.00
26807;BME280;14380;49.910;6.792;2023-04-19T02:12:33;99447.25;;;10.54;100.00
26807;BME280;14380;49.910;6.792;2023-04-19T02:15:01;99444.56;;;10.55;100.00
26807;BME280;14380;49.910;6.792;2023-04-19T02:17:27;99444.47;;;10.57;100.00
26807;BME280;14380;49.910;6.792;2023-04-19T02:19:54;99446.34;;;10.55;100.00
26807;BME280;14380;49.910;6.792;2023-04-19T02:22:20;99452.50;;;10.55;100.00
26807;BME280;14380;49.910;6.792;2023-04-19T02:24:49;99441.41;;;10.47;100.00
26807;BME280;14380;49.910;6.792;2023-04-19T02:27:16;99439.34;;;10.54;100.00
26807;BME280;14380;49.910;6.792;2023-04-19T02:29:43;99437.03;;;10.46;100.00
26807;BME280;14380;49.910;6.792;2023-04-19T02:32:12;99441.72;;;10.39;100.00
26807;BME280;14380;49.910;6.792;2023-04-19T02:34:38;99433.94;;;10.36;100.00
26807;BME280;14380;49.910;6.792;2023-04-19T02:37:05;99440.38;;;10.29;100.00
26807;BME280;14380;49.910;6.792;2023-04-19T02:39:31;99433.44;;;10.26;100.00
26807;BME280;14380;49.910;6.792;2023-04-19T02:41:58;99431.34;;;10.35;100.00
26807;BME280;14380;49.910;6.792;2023-04-19T02:44:25;99434.56;;;10.21;100.00
26807;BME280;14380;49.910;6.792;2023-04-19T02:46:52;99433.31;;;10.30;100.00
26807;BME280;14380;49.910;6.792;2023-04-19T02:49:20;99433.31;;;10.09;100.00
26807;BME280;14380;49.910;6.792;2023-04-19T02:51:49;99436.34;;;10.20;100.00
26807;BME280;14380;49.910;6.792;2023-04-19T02:54:16;99438.06;;;10.21;100.00
26807;BME280;14380;49.910;6.792;2023-04-19T02:56:43;99435.53;;;10.18;100.00
26807;BME280;14380;49.910;6.792;2023-04-19T02:59:09;99432.53;;;10.07;100.00
26807;BME280;14380;49.910;6.792;2023-04-19T03:01:36;99431.81;;;10.24;100.00
26807;BME280;14380;49.910;6.792;2023-04-19T03:04:02;99434.91;;;10.13;100.00
26807;BME280;14380;49.910;6.792;2023-04-19T03:06:30;99432.41;;;10.10;100.00
26807;BME280;14380;49.910;6.792;2023-04-19T03:08:57;99426.34;;;10.08;100.00
26807;BME280;14380;49.910;6.792;2023-04-19T03:11:23;99425.59;;;10.04;100.00
26807;BME280;14380;49.910;6.792;2023-04-19T03:13:50;99431.84;;;10.22;100.00
26807;BME280;14380;49.910;6.792;2023-04-19T03:16:17;99431.53;;;10.09;100.00
26807;BME280;14380;49.910;6.792;2023-04-19T03:18:43;99432.31;;;10.11;100.00
26807;BME280;14380;49.910;6.792;2023-04-19T03:21:10;99427.72;;;10.17;100.00
26807;BME280;14380;49.910;6.792;2023-04-19T03:23:38;99430.88;;;10.25;100.00
26807;BME280;14380;49.910;6.792;2023-04-19T03:26:04;99423.19;;;9.98;100.00
26807;BME280;14380;49.910;6.792;2023-04-19T03:28:31;99429.69;;;10.11;100.00
26807;BME280;14380;49.910;6.792;2023-04-19T03:30:57;99426.00;;;10.16;100.00
26807;BME280;14380;49.910;6.792;2023-04-19T03:33:25;99422.66;;;10.12;100.00
26807;BME280;14380;49.910;6.792;2023-04-19T03:35:51;99417.94;;;10.19;100.00
26807;BME280;14380;49.910;6.792;2023-04-19T03:38:18;99410.41;;;10.09;100.00
26807;BME280;14380;49.910;6.792;2023-04-19T03:40:46;99417.47;;;10.30;100.00
26807;BME280;14380;49.910;6.792;2023-04-19T03:43:13;99412.88;;;10.14;100.00
26807;BME280;14380;49.910;6.792;2023-04-19T03:45:39;99409.03;;;10.21;100.00
26807;BME280;14380;49.910;6.792;2023-04-19T03:48:06;99407.38;;;9.98;100.00
26807;BME280;14380;49.910;6.792;2023-04-19T03:50:33;99408.44;;;10.15;100.00
26807;BME280;14380;49.910;6.792;2023-04-19T03:52:59;99410.25;;;10.14;100.00
26807;BME280;14380;49.910;6.792;2023-04-19T03:55:26;99400.44;;;10.16;100.00
26807;BME280;14380;49.910;6.792;2023-04-19T03:57:53;99406.13;;;10.27;100.00
26807;BME280;14380;49.910;6.792;2023-04-19T04:00:20;99408.00;;;10.05;100.00
26807;BME280;14380;49.910;6.792;2023-04-19T04:02:47;99415.22;;;10.20;100.00
26807;BME280;14380;49.910;6.792;2023-04-19T04:05:14;99409.38;;;10.14;100.00
26807;BME280;14380;49.910;6.792;2023-04-19T04:07:40;99407.25;;;10.01;100.00
26807;BME280;14380;49.910;6.792;2023-04-19T04:10:07;99402.19;;;9.96;100.00
26807;BME280;14380;49.910;6.792;2023-04-19T04:12:34;99400.06;;;10.05;100.00
26807;BME280;14380;49.910;6.792;2023-04-19T04:15:02;99402.91;;;10.21;100.00
26807;BME280;14380;49.910;6.792;2023-04-19T04:17:29;99407.88;;;10.08;100.00
26807;BME280;14380;49.910;6.792;2023-04-19T04:19:56;99396.97;;;10.16;100.00
26807;BME280;14380;49.910;6.792;2023-04-19T04:22:22;99409.84;;;10.03;100.00
26807;BME280;14380;49.910;6.792;2023-04-19T04:24:49;99407.78;;;10.09;100.00
26807;BME280;14380;49.910;6.792;2023-04-19T04:27:18;99410.75;;;10.02;100.00
26807;BME280;14380;49.910;6.792;2023-04-19T04:29:45;99405.16;;;10.09;100.00
26807;BME280;14380;49.910;6.792;2023-04-19T04:32:15;99413.56;;;9.97;100.00
26807;BME280;14380;49.910;6.792;2023-04-19T04:34:42;99412.00;;;9.93;100.00
26807;BME280;14380;49.910;6.792;2023-04-19T04:37:09;99416.38;;;10.15;100.00
26807;BME280;14380;49.910;6.792;2023-04-19T04:39:36;99409.31;;;10.15;100.00
26807;BME280;14380;49.910;6.792;2023-04-19T04:42:04;99420.25;;;10.06;100.00
26807;BME280;14380;49.910;6.792;2023-04-19T04:44:33;99417.47;;;9.88;100.00
26807;BME280;14380;49.910;6.792;2023-04-19T04:46:59;99414.38;;;9.99;100.00
26807;BME280;14380;49.910;6.792;2023-04-19T04:49:27;99415.00;;;10.06;100.00
26807;BME280;14380;49.910;6.792;2023-04-19T04:51:54;99416.56;;;10.10;100.00
26807;BME280;14380;49.910;6.792;2023-04-19T04:54:21;99410.38;;;10.11;100.00
26807;BME280;14380;49.910;6.792;2023-04-19T04:56:47;99417.41;;;9.90;100.00
26807;BME280;14380;49.910;6.792;2023-04-19T04:59:14;99415.66;;;10.11;100.00
26807;BME280;14380;49.910;6.792;2023-04-19T05:01:40;99424.78;;;10.02;100.00
26807;BME280;14380;49.910;6.792;2023-04-19T05:04:07;99416.69;;;10.07;100.00
26807;BME280;14380;49.910;6.792;2023-04-19T05:06:35;99419.66;;;9.99;100.00
26807;BME280;14380;49.910;6.792;2023-04-19T05:09:05;99419.25;;;10.08;100.00
26807;BME280;14380;49.910;6.792;2023-04-19T05:11:31;99417.28;;;10.14;100.00
26807;BME280;14380;49.910;6.792;2023-04-19T05:13:58;99420.47;;;10.22;100.00
26807;BME280;14380;49.910;6.792;2023-04-19T05:16:25;99426.91;;;10.15;100.00
26807;BME280;14380;49.910;6.792;2023-04-19T05:18:52;99424.47;;;10.31;100.00
26807;BME280;14380;49.910;6.792;2023-04-19T05:21:18;99429.09;;;10.25;100.00
26807;BME280;14380;49.910;6.792;2023-04-19T05:23:46;99425.88;;;10.39;100.00
26807;BME280;14380;49.910;6.792;2023-04-19T05:26:13;99432.06;;;10.18;100.00
26807;BME280;14380;49.910;6.792;2023-04-19T05:28:40;99435.09;;;10.29;100.00
26807;BME280;14380;49.910;6.792;2023-04-19T05:31:07;99430.94;;;10.23;100.00
26807;BME280;14380;49.910;6.792;2023-04-19T05:33:33;99429.09;;;10.25;100.00
26807;BME280;14380;49.910;6.792;2023-04-19T05:36:00;99428.97;;;10.29;100.00
26807;BME280;14380;49.910;6.792;2023-04-19T05:38:30;99431.84;;;10.22;100.00
26807;BME280;14380;49.910;6.792;2023-04-19T05:40:58;99427.63;;;10.18;100.00
26807;BME280;14380;49.910;6.792;2023-04-19T05:43:25;99429.75;;;10.31;100.00
26807;BME280;14380;49.910;6.792;2023-04-19T05:45:52;99427.72;;;10.37;100.00
26807;BME280;14380;49.910;6.792;2023-04-19T05:48:18;99430.31;;;10.39;100.00
26807;BME280;14380;49.910;6.792;2023-04-19T05:50:45;99433.06;;;10.36;100.00
26807;BME280;14380;49.910;6.792;2023-04-19T05:53:11;99431.81;;;10.24;100.00
26807;BME280;14380;49.910;6.792;2023-04-19T05:55:38;99431.28;;;10.16;100.00
26807;BME280;14380;49.910;6.792;2023-04-19T05:58:06;99431.16;;;10.39;100.00
26807;BME280;14380;49.910;6.792;2023-04-19T06:00:32;99433.78;;;10.39;100.00
26807;BME280;14380;49.910;6.792;2023-04-19T06:02:59;99432.19;;;10.15;100.00
26807;BME280;14380;49.910;6.792;2023-04-19T06:05:25;99431.56;;;10.30;100.00
26807;BME280;14380;49.910;6.792;2023-04-19T06:07:52;99436.63;;;10.35;100.00
26807;BME280;14380;49.910;6.792;2023-04-19T06:10:20;99439.59;;;10.27;100.00
26807;BME280;14380;49.910;6.792;2023-04-19T06:12:47;99433.44;;;10.26;100.00
26807;BME280;14380;49.910;6.792;2023-04-19T06:15:15;99428.19;;;10.47;100.00
26807;BME280;14380;49.910;6.792;2023-04-19T06:17:41;99429.16;;;10.24;100.00
26807;BME280;14380;49.910;6.792;2023-04-19T06:20:08;99436.16;;;10.25;100.00
26807;BME280;14380;49.910;6.792;2023-04-19T06:22:43;99432.47;;;10.29;100.00
26807;BME280;14380;49.910;6.792;2023-04-19T06:25:10;99441.53;;;10.44;100.00
26807;BME280;14380;49.910;6.792;2023-04-19T06:27:36;99436.97;;;10.48;100.00
26807;BME280;14380;49.910;6.792;2023-04-19T06:30:04;99435.84;;;10.53;100.00
26807;BME280;14380;49.910;6.792;2023-04-19T06:32:32;99437.09;;;10.45;100.00
26807;BME280;14380;49.910;6.792;2023-04-19T06:34:58;99432.78;;;10.63;100.00
26807;BME280;14380;49.910;6.792;2023-04-19T06:37:25;99439.47;;;10.30;100.00
26807;BME280;14380;49.910;6.792;2023-04-19T06:39:51;99440.22;;;10.54;100.00
26807;BME280;14380;49.910;6.792;2023-04-19T06:42:18;99436.72;;;10.73;100.00
26807;BME280;14380;49.910;6.792;2023-04-19T06:44:45;99438.28;;;10.58;100.00
26807;BME280;14380;49.910;6.792;2023-04-19T06:47:12;99434.47;;;10.84;100.00
26807;BME280;14380;49.910;6.792;2023-04-19T06:49:39;99438.31;;;10.96;100.00
26807;BME280;14380;49.910;6.792;2023-04-19T06:52:06;99444.75;;;10.71;100.00
26807;BME280;14380;49.910;6.792;2023-04-19T06:54:33;99447.53;;;10.88;100.00
26807;BME280;14380;49.910;6.792;2023-04-19T06:56:59;99448.31;;;10.70;100.00
26807;BME280;14380;49.910;6.792;2023-04-19T06:59:26;99435.78;;;10.95;100.00
26807;BME280;14380;49.910;6.792;2023-04-19T07:01:53;99444.03;;;10.87;100.00
26807;BME280;14380;49.910;6.792;2023-04-19T07:04:21;99436.88;;;10.89;100.00
26807;BME280;14380;49.910;6.792;2023-04-19T07:06:49;99439.25;;;11.14;100.00
26807;BME280;14380;49.910;6.792;2023-04-19T07:09:15;99436.19;;;11.24;100.00
26807;BME280;14380;49.910;6.792;2023-04-19T07:11:42;99430.19;;;11.20;100.00
26807;BME280;14380;49.910;6.792;2023-04-19T07:14:08;99430.38;;;11.35;100.00
26807;BME280;14380;49.910;6.792;2023-04-19T07:16:35;99433.16;;;11.31;100.00
26807;BME280;14380;49.910;6.792;2023-04-19T07:19:02;99436.31;;;11.21;100.00
26807;BME280;14380;49.910;6.792;2023-04-19T07:21:28;99426.38;;;11.45;100.00
26807;BME280;14380;49.910;6.792;2023-04-19T07:23:58;99430.88;;;11.43;100.00
26807;BME280;14380;49.910;6.792;2023-04-19T07:26:25;99412.56;;;11.75;100.00
26807;BME280;14380;49.910;6.792;2023-04-19T07:28:52;99432.03;;;11.74;100.00
26807;BME280;14380;49.910;6.792;2023-04-19T07:31:18;99427.06;;;11.85;100.00
26807;BME280;14380;49.910;6.792;2023-04-19T07:33:45;99428.38;;;11.77;100.00
26807;BME280;14380;49.910;6.792;2023-04-19T07:36:12;99428.03;;;11.48;100.00
26807;BME280;14380;49.910;6.792;2023-04-19T07:38:38;99434.72;;;11.55;100.00
26807;BME280;14380;49.910;6.792;2023-04-19T07:41:06;99436.03;;;11.46;100.00
26807;BME280;14380;49.910;6.792;2023-04-19T07:43:34;99425.41;;;11.65;100.00
26807;BME280;14380;49.910;6.792;2023-04-19T07:46:01;99424.88;;;11.76;100.00
26807;BME280;14380;49.910;6.792;2023-04-19T07:48:27;99421.63;;;11.52;100.00
26807;BME280;14380;49.910;6.792;2023-04-19T07:50:54;99426.09;;;11.51;100.00
26807;BME280;14380;49.910;6.792;2023-04-19T07:53:20;99420.69;;;11.89;100.00
26807;BME280;14380;49.910;6.792;2023-04-19T07:55:47;99425.50;;;11.64;100.00
26807;BME280;14380;49.910;6.792;2023-04-19T07:58:15;99419.19;;;12.03;100.00
26807;BME280;14380;49.910;6.792;2023-04-19T08:00:41;99420.53;;;11.93;100.00
26807;BME280;14380;49.910;6.792;2023-04-19T08:03:08;99420.94;;;12.02;100.00
26807;BME280;14380;49.910;6.792;2023-04-19T08:05:34;99413.22;;;11.98;100.00
26807;BME280;14380;49.910;6.792;2023-04-19T08:08:01;99408.88;;;12.32;100.00
26807;BME280;14380;49.910;6.792;2023-04-19T08:10:29;99410.50;;;11.99;100.00
26807;BME280;14380;49.910;6.792;2023-04-19T08:12:56;99403.66;;;12.13;100.00
26807;BME280;14380;49.910;6.792;2023-04-19T08:15:24;99404.69;;;12.10;100.00
26807;BME280;14380;49.910;6.792;2023-04-19T08:17:51;99409.75;;;12.15;100.00
26807;BME280;14380;49.910;6.792;2023-04-19T08:20:17;99402.13;;;12.26;100.00
26807;BME280;14380;49.910;6.792;2023-04-19T08:22:47;99402.28;;;12.23;100.00
26807;BME280;14380;49.910;6.792;2023-04-19T08:25:13;99400.06;;;12.65;100.00
26807;BME280;14380;49.910;6.792;2023-04-19T08:27:40;99405.13;;;12.70;99.81
26807;BME280;14380;49.910;6.792;2023-04-19T08:30:08;99413.28;;;12.49;100.00
26807;BME280;14380;49.910;6.792;2023-04-19T08:32:36;99407.59;;;12.57;100.00
26807;BME280;14380;49.910;6.792;2023-04-19T08:35:04;99396.72;;;12.28;100.00
26807;BME280;14380;49.910;6.792;2023-04-19T08:37:32;99405.69;;;12.25;100.00
26807;BME280;14380;49.910;6.792;2023-04-19T08:39:59;99401.84;;;12.48;100.00
26807;BME280;14380;49.910;6.792;2023-04-19T08:42:25;99409.22;;;12.42;100.00
26807;BME280;14380;49.910;6.792;2023-04-19T08:44:53;99401.06;;;12.46;100.00
26807;BME280;14380;49.910;6.792;2023-04-19T08:47:22;99404.28;;;12.69;98.56
26807;BME280;14380;49.910;6.792;2023-04-19T08:49:51;99398.16;;;12.85;100.00
26807;BME280;14380;49.910;6.792;2023-04-19T08:52:20;99387.22;;;13.23;97.21
26807;BME280;14380;49.910;6.792;2023-04-19T08:54:47;99376.38;;;13.44;96.71
26807;BME280;14380;49.910;6.792;2023-04-19T08:57:14;99386.50;;;13.67;97.73
26807;BME280;14380;49.910;6.792;2023-04-19T08:59:40;99376.31;;;13.76;98.84
26807;BME280;14380;49.910;6.792;2023-04-19T09:02:09;99384.16;;;13.77;96.00
26807;BME280;14380;49.910;6.792;2023-04-19T09:04:36;99365.22;;;13.83;94.10
26807;BME280;14380;49.910;6.792;2023-04-19T09:07:04;99362.91;;;14.08;93.78
26807;BME280;14380;49.910;6.792;2023-04-19T09:09:33;99356.50;;;13.81;91.26
26807;BME280;14380;49.910;6.792;2023-04-19T09:12:00;99355.06;;;13.45;94.16
26807;BME280;14380;49.910;6.792;2023-04-19T09:14:27;99368.88;;;13.66;94.30
26807;BME280;14380;49.910;6.792;2023-04-19T09:17:10;99367.19;;;13.33;91.25
26807;BME280;14380;49.910;6.792;2023-04-19T09:19:44;99370.69;;;13.50;92.86
26807;BME280;14380;49.910;6.792;2023-04-19T09:22:13;99360.63;;;14.02;91.18
26807;BME280;14380;49.910;6.792;2023-04-19T09:24:40;99361.16;;;13.78;93.41
26807;BME280;14380;49.910;6.792;2023-04-19T09:27:06;99352.09;;;14.11;91.72
26807;BME280;14380;49.910;6.792;2023-04-19T09:29:36;99349.66;;;14.22;90.83
26807;BME280;14380;49.910;6.792;2023-04-19T09:32:03;99344.81;;;14.43;89.47
26807;BME280;14380;49.910;6.792;2023-04-19T09:34:30;99346.13;;;14.22;89.74
26807;BME280;14380;49.910;6.792;2023-04-19T09:36:57;99337.25;;;14.52;88.95
26807;BME280;14380;49.910;6.792;2023-04-19T09:39:31;99336.00;;;14.43;89.91
26807;BME280;14380;49.910;6.792;2023-04-19T09:42:00;99322.22;;;14.80;86.24
26807;BME280;14380;49.910;6.792;2023-04-19T09:44:27;99326.22;;;15.14;88.09
26807;BME280;14380;49.910;6.792;2023-04-19T09:46:53;99320.59;;;14.92;85.33
26807;BME280;14380;49.910;6.792;2023-04-19T09:49:21;99315.75;;;14.98;86.59
26807;BME280;14380;49.910;6.792;2023-04-19T09:51:50;99315.44;;;15.30;86.36
26807;BME280;14380;49.910;6.792;2023-04-19T09:54:19;99309.16;;;15.04;82.83
26807;BME280;14380;49.910;6.792;2023-04-19T09:56:47;99300.81;;;15.23;84.74
26807;BME280;14380;49.910;6.792;2023-04-19T09:59:14;99300.81;;;15.23;84.35
26807;BME280;14380;49.910;6.792;2023-04-19T10:01:43;99295.09;;;15.29;85.92
26807;BME280;14380;49.910;6.792;2023-04-19T10:04:12;99296.59;;;15.34;85.94
26807;BME280;14380;49.910;6.792;2023-04-19T10:06:46;99299.28;;;15.06;83.47
26807;BME280;14380;49.910;6.792;2023-04-19T10:09:13;99287.31;;;15.67;85.16
26807;BME280;14380;49.910;6.792;2023-04-19T10:11:42;99295.53;;;15.36;82.80
26807;BME280;14380;49.910;6.792;2023-04-19T10:14:14;99295.34;;;15.12;85.48
26807;BME280;14380;49.910;6.792;2023-04-19T10:16:41;99298.28;;;14.94;85.17
26807;BME280;14380;49.910;6.792;2023-04-19T10:19:10;99284.75;;;15.65;84.17
26807;BME280;14380;49.910;6.792;2023-04-19T10:21:37;99283.59;;;15.29;82.46
26807;BME280;14380;49.910;6.792;2023-04-19T10:24:05;99285.34;;;15.43;81.67
26807;BME280;14380;49.910;6.792;2023-04-19T10:29:55;99268.81;;;15.91;80.62
26807;BME280;14380;49.910;6.792;2023-04-19T10:32:22;99267.03;;;16.55;79.12
26807;BME280;14380;49.910;6.792;2023-04-19T10:34:51;99262.59;;;16.29;79.79
26807;BME280;14380;49.910;6.792;2023-04-19T10:37:21;99276.81;;;16.04;79.17
26807;BME280;14380;49.910;6.792;2023-04-19T10:39:49;99270.63;;;16.03;80.22
26807;BME280;14380;49.910;6.792;2023-04-19T10:42:15;99269.97;;;16.13;80.10
26807;BME280;14380;49.910;6.792;2023-04-19T10:47:53;99265.56;;;16.50;79.20
26807;BME280;14380;49.910;6.792;2023-04-19T10:50:22;99263.94;;;16.11;79.73
26807;BME280;14380;49.910;6.792;2023-04-19T10:52:49;99248.91;;;16.84;79.86
26807;BME280;14380;49.910;6.792;2023-04-19T10:55:17;99248.56;;;16.89;78.98
26807;BME280;14380;49.910;6.792;2023-04-19T10:58:01;99242.91;;;16.93;77.28
26807;BME280;14380;49.910;6.792;2023-04-19T11:00:29;99241.59;;;16.38;78.46
26807;BME280;14380;49.910;6.792;2023-04-19T11:02:59;99258.66;;;16.22;80.80
26807;BME280;14380;49.910;6.792;2023-04-19T11:05:26;99255.41;;;16.05;82.76
26807;BME280;14380;49.910;6.792;2023-04-19T11:07:52;99258.22;;;15.51;80.47
26807;BME280;14380;49.910;6.792;2023-04-19T11:10:27;99252.50;;;15.83;79.68
26807;BME280;14380;49.910;6.792;2023-04-19T11:12:54;99252.53;;;15.29;79.82
26807;BME280;14380;49.910;6.792;2023-04-19T11:15:21;99251.28;;;15.48;81.28
26807;BME280;14380;49.910;6.792;2023-04-19T11:17:49;99247.88;;;15.46;79.43
26807;BME280;14380;49.910;6.792;2023-04-19T11:20:22;99244.13;;;15.23;81.29
26807;BME280;14380;49.910;6.792;2023-04-19T11:22:48;99247.41;;;15.26;83.56
26807;BME280;14380;49.910;6.792;2023-04-19T11:25:16;99240.97;;;15.69;79.49
26807;BME280;14380;49.910;6.792;2023-04-19T11:27:44;99246.09;;;15.72;80.53
26807;BME280;14380;49.910;6.792;2023-04-19T11:30:13;99230.44;;;15.68;79.12
26807;BME280;14380;49.910;6.792;2023-04-19T11:32:45;99232.34;;;15.79;79.76
26807;BME280;14380;49.910;6.792;2023-04-19T11:35:12;99232.56;;;15.50;80.85
26807;BME280;14380;49.910;6.792;2023-04-19T11:37:40;99230.38;;;15.29;80.50
26807;BME280;14380;49.910;6.792;2023-04-19T11:40:08;99222.81;;;14.82;78.68
26807;BME280;14380;49.910;6.792;2023-04-19T11:42:35;99213.72;;;15.53;76.85
26807;BME280;14380;49.910;6.792;2023-04-19T11:45:02;99214.78;;;15.76;73.63
26807;BME280;14380;49.910;6.792;2023-04-19T11:47:28;99200.91;;;16.60;70.42
26807;BME280;14380;49.910;6.792;2023-04-19T11:49:55;99190.34;;;16.58;74.25
26807;BME280;14380;49.910;6.792;2023-04-19T11:52:23;99192.16;;;16.33;71.71
26807;BME280;14380;49.910;6.792;2023-04-19T11:54:52;99184.47;;;16.66;72.66
26807;BME280;14380;49.910;6.792;2023-04-19T11:57:29;99180.41;;;16.85;73.66
26807;BME280;14380;49.910;6.792;2023-04-19T12:00:03;99185.00;;;16.34;69.61
26807;BME280;14380;49.910;6.792;2023-04-19T12:02:36;99177.19;;;16.07;69.53
26807;BME280;14380;49.910;6.792;2023-04-19T12:05:08;99181.91;;;15.64;69.11
26807;BME280;14380;49.910;6.792;2023-04-19T12:07:35;99177.53;;;15.63;71.30
26807;BME280;14380;49.910;6.792;2023-04-19T12:10:09;99180.09;;;15.39;71.49
26807;BME280;14380;49.910;6.792;2023-04-19T12:12:36;99177.63;;;15.61;70.90
26807;BME280;14380;49.910;6.792;2023-04-19T12:15:03;99183.44;;;15.28;72.83
26807;BME280;14380;49.910;6.792;2023-04-19T12:17:30;99187.50;;;15.21;71.88
26807;BME280;14380;49.910;6.792;2023-04-19T12:19:57;99182.31;;;15.45;72.51
26807;BME280;14380;49.910;6.792;2023-04-19T12:22:23;99181.47;;;15.57;71.97
26807;BME280;14380;49.910;6.792;2023-04-19T12:24:50;99174.28;;;15.06;71.37
26807;BME280;14380;49.910;6.792;2023-04-19T12:27:18;99175.88;;;15.09;72.77
26807;BME280;14380;49.910;6.792;2023-04-19T12:29:45;99170.13;;;15.02;71.56
26807;BME280;14380;49.910;6.792;2023-04-19T12:32:12;99181.13;;;15.36;72.22
26807;BME280;14380;49.910;6.792;2023-04-19T12:34:39;99177.09;;;15.30;70.98
26807;BME280;14380;49.910;6.792;2023-04-19T12:37:06;99173.69;;;15.41;72.89
26807;BME280;14380;49.910;6.792;2023-04-19T12:39:33;99173.97;;;15.24;71.42
26807;BME280;14380;49.910;6.792;2023-04-19T12:42:00;99175.72;;;15.38;70.98
26807;BME280;14380;49.910;6.792;2023-04-19T12:44:27;99171.97;;;15.53;72.41
26807;BME280;14380;49.910;6.792;2023-04-19T12:46:54;99168.59;;;15.64;72.54
26807;BME280;14380;49.910;6.792;2023-04-19T12:49:22;99165.50;;;15.31;71.91
26807;BME280;14380;49.910;6.792;2023-04-19T12:51:48;99154.31;;;15.39;71.83
26807;BME280;14380;49.910;6.792;2023-04-19T12:54:15;99150.91;;;15.37;70.61
26807;BME280;14380;49.910;6.792;2023-04-19T12:56:42;99151.09;;;15.21;73.22
26807;BME280;14380;49.910;6.792;2023-04-19T12:59:08;99141.31;;;15.60;73.20